Time;durP1;ratioP1;P1;durP2;ratioP2;P2;SDS_P1;SDS_P2;PMS_P1;PMS_P2;Temp;Humidity;BMP_temperature;BMP_pressure;BME280_temperature;BME280_humidity;BME280_pressure;Samples;Min_cycle;Max_cycle;Signal;HPM_P1;HPM_P2
2021/08/09 00:01:21;;;;;;;3.83;1.50;;;15.20;99.90;;;;;;5043446;28;20665;-41
2021/08/09 00:03:48;;;;;;;5.03;1.30;;;15.10;99.90;;;;;;5023927;28;20199;-41
2021/08/09 00:06:14;;;;;;;3.23;1.53;;;15.10;99.90;;;;;;5036828;28;20199;-42
2021/08/09 00:08:41;;;;;;;1.50;1.40;;;15.10;99.90;;;;;;5039885;28;20207;-43
2021/08/09 00:11:08;;;;;;;2.17;1.40;;;15.10;99.90;;;;;;5042920;28;20187;-42
2021/08/09 00:13:35;;;;;;;2.83;1.30;;;15.10;99.90;;;;;;5041861;28;20187;-49
2021/08/09 00:16:02;;;;;;;2.20;1.33;;;15.10;99.90;;;;;;5041212;28;20213;-43
2021/08/09 00:18:29;;;;;;;1.87;1.10;;;15.10;99.90;;;;;;5039845;28;20216;-44
2021/08/09 00:20:57;;;;;;;1.63;1.27;;;15.10;99.90;;;;;;5021888;28;20227;-45
2021/08/09 00:23:24;;;;;;;1.73;1.40;;;15.10;99.90;;;;;;5044948;28;20199;-43
2021/08/09 00:25:50;;;;;;;1.87;1.17;;;15.10;99.90;;;;;;5039627;28;20183;-45
2021/08/09 00:28:17;;;;;;;1.97;1.50;;;15.00;99.90;;;;;;5043113;28;20215;-43
2021/08/09 00:30:43;;;;;;;3.40;1.33;;;15.00;99.90;;;;;;5039734;28;20229;-44
2021/08/09 00:33:12;;;;;;;1.90;1.43;;;15.00;99.90;;;;;;5042214;28;20559;-46
2021/08/09 00:35:38;;;;;;;2.83;1.90;;;15.00;99.90;;;;;;5020290;28;20219;-42
2021/08/09 00:38:05;;;;;;;2.67;1.60;;;15.00;99.90;;;;;;5044550;28;20296;-45
2021/08/09 00:40:32;;;;;;;1.43;1.33;;;14.90;99.90;;;;;;5045917;28;20192;-43
2021/08/09 00:42:59;;;;;;;1.63;1.40;;;14.90;99.90;;;;;;5040794;28;20210;-43
2021/08/09 00:45:27;;;;;;;5.00;1.70;;;14.90;99.90;;;;;;5042013;28;20187;-43
2021/08/09 00:47:54;;;;;;;2.93;1.40;;;14.90;99.90;;;;;;5038636;28;20211;-42
2021/08/09 00:50:22;;;;;;;3.97;1.43;;;14.90;99.90;;;;;;5026303;28;20207;-43
2021/08/09 00:52:51;;;;;;;3.00;1.40;;;14.90;99.90;;;;;;5032926;28;20207;-44
2021/08/09 00:55:19;;;;;;;1.93;1.70;;;14.90;99.90;;;;;;5045792;28;20207;-45
2021/08/09 00:57:46;;;;;;;3.77;1.63;;;14.80;99.90;;;;;;5042085;28;20226;-42
2021/08/09 01:00:14;;;;;;;3.33;1.50;;;14.90;99.90;;;;;;5045779;28;20199;-44
2021/08/09 01:02:44;;;;;;;3.43;1.57;;;14.80;99.90;;;;;;5042747;28;20199;-44
2021/08/09 01:05:13;;;;;;;4.13;1.47;;;14.80;99.90;;;;;;5030015;28;20265;-43
2021/08/09 01:07:56;;;;;;;3.30;1.70;;;14.90;99.90;;;;;;5035350;28;20587;-43
2021/08/09 01:10:30;;;;;;;1.37;1.20;;;14.90;99.90;;;;;;5044647;28;20206;-43
2021/08/09 01:13:04;;;;;;;2.37;1.40;;;14.90;99.90;;;;;;5043130;28;20314;-44
2021/08/09 01:15:35;;;;;;;2.73;1.57;;;14.90;99.90;;;;;;5044271;28;20207;-44
2021/08/09 01:18:04;;;;;;;2.50;1.70;;;14.90;99.90;;;;;;5038994;28;20203;-43
2021/08/09 01:20:43;;;;;;;2.70;1.60;;;14.90;99.90;;;;;;5026122;28;20481;-45
2021/08/09 01:23:20;;;;;;;2.07;1.60;;;14.90;99.90;;;;;;5033269;28;20215;-41
2021/08/09 01:25:51;;;;;;;3.50;1.70;;;15.00;99.90;;;;;;5048824;28;20198;-46
2021/08/09 01:28:22;;;;;;;2.73;1.70;;;15.00;99.90;;;;;;5044172;28;20207;-44
2021/08/09 01:30:55;;;;;;;3.73;1.70;;;15.00;99.90;;;;;;5044368;28;20230;-45
2021/08/09 01:33:24;;;;;;;3.07;1.83;;;15.00;99.90;;;;;;5042298;28;20215;-43
2021/08/09 01:35:52;;;;;;;1.90;1.43;;;15.00;99.90;;;;;;5030451;28;20212;-42
2021/08/09 01:38:22;;;;;;;6.43;2.00;;;15.10;99.90;;;;;;5036084;28;20315;-42
2021/08/09 01:40:49;;;;;;;3.50;1.67;;;15.10;99.90;;;;;;5045182;28;20218;-42
2021/08/09 01:43:20;;;;;;;4.27;1.77;;;15.10;99.90;;;;;;5044312;28;20218;-41
2021/08/09 01:45:47;;;;;;;4.67;1.80;;;15.10;99.90;;;;;;5065227;28;20201;-42
2021/08/09 01:48:14;;;;;;;3.23;1.70;;;15.10;99.90;;;;;;5060870;28;20207;-40
2021/08/09 01:50:43;;;;;;;2.40;1.60;;;15.10;99.90;;;;;;5039257;28;20211;-45
2021/08/09 01:53:11;;;;;;;2.73;1.73;;;15.10;99.90;;;;;;5040415;28;20219;-43
2021/08/09 01:55:39;;;;;;;6.87;2.73;;;15.20;99.90;;;;;;5038281;28;20204;-45
2021/08/09 01:58:07;;;;;;;3.10;1.50;;;15.20;99.90;;;;;;5041508;28;20305;-43
2021/08/09 02:00:36;;;;;;;2.30;1.60;;;15.20;99.90;;;;;;5044040;28;20207;-46
2021/08/09 02:03:04;;;;;;;2.53;1.40;;;15.20;99.90;;;;;;5042610;28;20290;-44
2021/08/09 02:05:32;;;;;;;3.10;1.60;;;15.20;99.90;;;;;;5043147;28;20188;-43
2021/08/09 02:08:05;;;;;;;3.67;1.90;;;15.20;99.90;;;;;;5026614;28;20296;-46
2021/08/09 02:10:32;;;;;;;2.70;1.60;;;15.30;99.90;;;;;;5037773;28;21695;-43
2021/08/09 02:13:09;;;;;;;2.97;1.63;;;15.30;99.90;;;;;;5041817;28;20218;-45
2021/08/09 02:15:53;;;;;;;2.67;1.40;;;15.30;99.90;;;;;;5045368;28;20651;-46
2021/08/09 02:18:26;;;;;;;3.50;1.53;;;15.30;99.90;;;;;;5047887;28;20249;-49
2021/08/09 02:20:58;;;;;;;2.23;1.47;;;15.30;99.90;;;;;;5049389;28;20764;-44
2021/08/09 02:23:34;;;;;;;3.63;1.67;;;15.30;99.90;;;;;;5029633;28;20200;-42
2021/08/09 02:26:02;;;;;;;2.47;1.70;;;15.30;99.90;;;;;;5035633;28;20235;-43
2021/08/09 02:28:30;;;;;;;2.57;1.23;;;15.30;99.90;;;;;;5042489;28;20298;-46
2021/08/09 02:31:03;;;;;;;2.47;1.33;;;15.40;99.90;;;;;;5042043;28;20203;-43
2021/08/09 02:33:32;;;;;;;2.70;1.47;;;15.40;99.90;;;;;;5042669;28;20907;-47
2021/08/09 02:36:03;;;;;;;2.47;1.23;;;15.40;99.90;;;;;;5034075;28;20227;-45
2021/08/09 02:38:32;;;;;;;3.60;1.73;;;15.40;99.90;;;;;;5037437;28;20230;-44
2021/08/09 02:41:00;;;;;;;2.73;1.90;;;15.40;99.90;;;;;;5040943;28;20545;-43
2021/08/09 02:43:27;;;;;;;2.60;1.60;;;15.50;99.90;;;;;;5038587;28;20203;-41
2021/08/09 02:45:57;;;;;;;1.30;1.20;;;15.50;99.90;;;;;;5043072;28;20215;-44
2021/08/09 02:48:26;;;;;;;3.17;1.57;;;15.40;99.90;;;;;;5044267;28;20204;-45
2021/08/09 02:50:54;;;;;;;3.70;2.00;;;15.50;99.90;;;;;;5047640;28;20294;-41
2021/08/09 02:53:22;;;;;;;2.57;1.60;;;15.40;99.90;;;;;;5030034;28;20210;-47
2021/08/09 02:55:52;;;;;;;4.70;1.90;;;15.40;99.90;;;;;;5047104;28;20211;-43
2021/08/09 02:58:20;;;;;;;4.77;1.70;;;15.40;99.90;;;;;;5037782;28;20238;-46
2021/08/09 03:00:47;;;;;;;10.80;1.93;;;15.40;99.90;;;;;;5047465;28;20219;-44
2021/08/09 03:03:15;;;;;;;4.80;1.67;;;15.40;99.90;;;;;;5044118;28;20194;-45
2021/08/09 03:05:44;;;;;;;3.77;1.73;;;15.40;99.90;;;;;;5049094;28;20195;-48
2021/08/09 03:08:12;;;;;;;2.87;1.80;;;15.40;99.90;;;;;;5029838;28;20209;-41
2021/08/09 03:10:39;;;;;;;1.40;1.30;;;15.30;99.90;;;;;;5043983;28;20202;-45
2021/08/09 03:13:08;;;;;;;3.93;1.73;;;15.30;99.90;;;;;;5033422;28;20556;-43
2021/08/09 03:15:36;;;;;;;3.70;1.70;;;15.30;99.90;;;;;;5042449;28;20280;-44
2021/08/09 03:18:03;;;;;;;3.10;1.63;;;15.30;99.90;;;;;;5040589;28;20265;-47
2021/08/09 03:20:30;;;;;;;3.03;2.00;;;15.20;99.90;;;;;;5041564;28;20215;-43
2021/08/09 03:23:00;;;;;;;5.93;2.00;;;15.20;99.90;;;;;;5035564;28;20195;-46
2021/08/09 03:25:27;;;;;;;3.63;1.73;;;15.20;99.90;;;;;;5033619;28;20210;-41
2021/08/09 03:27:54;;;;;;;3.97;2.27;;;15.10;99.90;;;;;;5034668;28;20215;-51
2021/08/09 03:30:21;;;;;;;4.83;2.03;;;15.10;99.90;;;;;;5039099;28;20245;-41
2021/08/09 03:32:48;;;;;;;4.10;2.10;;;15.10;99.90;;;;;;5042568;28;20188;-41
2021/08/09 03:35:15;;;;;;;7.67;3.37;;;15.10;99.90;;;;;;5039102;28;20205;-43
2021/08/09 03:37:41;;;;;;;5.23;2.90;;;15.10;99.90;;;;;;5043004;28;20830;-43
2021/08/09 03:40:11;;;;;;;6.60;2.43;;;15.00;99.90;;;;;;5022873;28;20222;-44
2021/08/09 03:42:37;;;;;;;4.70;2.90;;;15.00;99.90;;;;;;5036129;28;20229;-42
2021/08/09 03:45:06;;;;;;;7.27;2.03;;;15.00;99.90;;;;;;5041077;28;20214;-44
2021/08/09 03:47:33;;;;;;;4.13;1.90;;;15.00;99.90;;;;;;5041993;28;20222;-42
2021/08/09 03:49:59;;;;;;;5.27;1.90;;;14.90;99.90;;;;;;5041849;28;20191;-44
2021/08/09 03:52:26;;;;;;;3.27;2.37;;;14.90;99.90;;;;;;5040356;28;20223;-43
2021/08/09 03:54:53;;;;;;;4.47;2.80;;;14.90;99.90;;;;;;5026558;28;20350;-45
2021/08/09 03:57:23;;;;;;;6.70;2.23;;;14.90;99.90;;;;;;5040126;28;20214;-46
2021/08/09 03:59:50;;;;;;;3.60;2.60;;;14.90;99.90;;;;;;5035580;28;20203;-43
2021/08/09 04:02:17;;;;;;;2.80;2.00;;;14.90;99.90;;;;;;5034403;28;20199;-43
2021/08/09 04:04:44;;;;;;;3.50;3.17;;;14.90;99.90;;;;;;5038437;28;20187;-42
2021/08/09 04:07:11;;;;;;;6.03;2.80;;;14.80;99.90;;;;;;5042092;28;20183;-43
2021/08/09 04:09:38;;;;;;;5.03;2.20;;;14.80;99.90;;;;;;5023424;28;20207;-42
2021/08/09 04:12:05;;;;;;;6.60;2.97;;;14.80;99.90;;;;;;5032889;28;20192;-41
2021/08/09 04:14:33;;;;;;;4.97;2.47;;;14.80;99.90;;;;;;5030908;28;20572;-42
2021/08/09 04:17:00;;;;;;;5.07;2.40;;;14.80;99.90;;;;;;5043358;28;20325;-45
2021/08/09 04:19:27;;;;;;;5.40;2.53;;;14.80;99.90;;;;;;5045395;28;20205;-41
2021/08/09 04:21:53;;;;;;;6.23;2.50;;;14.80;99.90;;;;;;5043596;28;20203;-45
2021/08/09 04:24:20;;;;;;;3.63;2.20;;;14.80;99.90;;;;;;5043631;28;20554;-44
2021/08/09 04:26:46;;;;;;;6.27;1.87;;;14.80;99.90;;;;;;5021848;28;20195;-43
2021/08/09 04:29:13;;;;;;;3.00;2.77;;;14.70;99.90;;;;;;5035608;28;20242;-42
2021/08/09 04:31:43;;;;;;;5.87;3.10;;;14.70;99.90;;;;;;5031093;28;20673;-43
2021/08/09 04:34:11;;;;;;;9.67;4.73;;;14.70;99.90;;;;;;5041766;28;20742;-42
2021/08/09 04:36:37;;;;;;;4.63;2.50;;;14.70;99.90;;;;;;5038891;28;20222;-46
2021/08/09 04:39:04;;;;;;;3.80;2.57;;;14.70;99.90;;;;;;5039448;28;20223;-44
2021/08/09 04:41:31;;;;;;;4.03;2.80;;;14.70;99.90;;;;;;5027636;28;20568;-44
2021/08/09 04:43:58;;;;;;;4.13;2.30;;;14.70;99.90;;;;;;5043648;28;20895;-49
2021/08/09 04:46:25;;;;;;;3.27;1.97;;;14.80;99.90;;;;;;5040986;28;20204;-42
2021/08/09 04:48:52;;;;;;;5.90;3.63;;;14.70;99.90;;;;;;5042876;28;20822;-45
2021/08/09 04:51:19;;;;;;;5.90;3.83;;;14.70;99.90;;;;;;5047596;28;20245;-45
2021/08/09 04:53:49;;;;;;;8.23;3.03;;;14.70;99.90;;;;;;5040006;28;20278;-42
2021/08/09 04:56:16;;;;;;;7.03;2.77;;;14.70;99.90;;;;;;5027190;28;20215;-41
2021/08/09 04:58:43;;;;;;;5.30;2.73;;;14.80;99.90;;;;;;5036881;28;20210;-45
2021/08/09 05:01:10;;;;;;;5.23;3.03;;;14.80;99.90;;;;;;5039431;28;20203;-44
2021/08/09 05:03:38;;;;;;;7.77;3.67;;;14.80;99.90;;;;;;5042899;28;20214;-40
2021/08/09 05:06:09;;;;;;;6.97;2.80;;;14.80;99.90;;;;;;5043808;28;20219;-46
2021/08/09 05:08:36;;;;;;;5.20;2.80;;;14.80;99.90;;;;;;5033655;28;20314;-44
2021/08/09 05:11:03;;;;;;;3.87;1.77;;;14.80;99.90;;;;;;5040635;28;20200;-46
2021/08/09 05:13:30;;;;;;;7.30;2.27;;;14.80;99.90;;;;;;5024701;28;20208;-44
2021/08/09 05:15:57;;;;;;;3.90;2.03;;;14.80;99.90;;;;;;5030294;28;20199;-44
2021/08/09 05:18:23;;;;;;;2.83;2.10;;;14.80;99.90;;;;;;5034400;28;20589;-45
2021/08/09 05:20:50;;;;;;;3.90;2.30;;;14.90;99.90;;;;;;5038604;28;20847;-46
2021/08/09 05:23:18;;;;;;;4.50;2.57;;;14.90;99.90;;;;;;5037380;28;20207;-45
2021/08/09 05:25:45;;;;;;;8.00;2.30;;;14.90;99.90;;;;;;5037160;28;20184;-43
2021/08/09 05:28:11;;;;;;;4.40;2.50;;;15.00;99.90;;;;;;5027146;28;20260;-44
2021/08/09 05:30:38;;;;;;;6.20;3.00;;;15.00;99.90;;;;;;5037712;28;20203;-43
2021/08/09 05:33:05;;;;;;;5.40;2.70;;;15.00;99.90;;;;;;5034566;28;20301;-44
2021/08/09 05:35:32;;;;;;;7.80;2.70;;;15.10;99.90;;;;;;5039061;28;20205;-45
2021/08/09 05:37:59;;;;;;;5.67;3.53;;;15.10;99.90;;;;;;5036165;28;20219;-42
2021/08/09 05:40:28;;;;;;;6.43;2.80;;;15.10;99.90;;;;;;5042743;28;20714;-48
2021/08/09 05:42:55;;;;;;;5.57;2.50;;;15.20;99.90;;;;;;5026673;28;22048;-44
2021/08/09 05:45:22;;;;;;;3.80;3.10;;;15.20;99.90;;;;;;5039793;28;20191;-43
2021/08/09 05:47:49;;;;;;;6.70;3.77;;;15.30;99.90;;;;;;5038422;28;20211;-49
2021/08/09 05:50:16;;;;;;;5.43;2.50;;;15.30;99.90;;;;;;5048575;28;20680;-48
2021/08/09 05:52:52;;;;;;;9.20;2.77;;;15.30;99.90;;;;;;5040333;28;20207;-50
2021/08/09 05:55:21;;;;;;;5.83;2.60;;;15.40;99.90;;;;;;5047157;28;20203;-48
2021/08/09 05:57:49;;;;;;;4.00;2.53;;;15.40;99.90;;;;;;5039951;28;20208;-41
2021/08/09 06:00:17;;;;;;;3.33;2.67;;;15.40;99.90;;;;;;5037601;28;20261;-43
2021/08/09 06:02:50;;;;;;;3.57;2.37;;;15.50;99.90;;;;;;5032982;28;20198;-43
2021/08/09 06:05:39;;;;;;;4.17;2.60;;;15.50;99.90;;;;;;5034425;28;20510;-44
2021/08/09 06:08:06;;;;;;;6.03;2.57;;;15.60;99.90;;;;;;5039212;28;20219;-43
2021/08/09 06:10:33;;;;;;;6.13;2.93;;;15.70;99.90;;;;;;5038174;28;20191;-45
2021/08/09 06:13:04;;;;;;;5.27;2.57;;;15.70;99.90;;;;;;5036297;28;20781;-43
2021/08/09 06:15:31;;;;;;;4.40;2.50;;;15.80;99.90;;;;;;5025596;28;20207;-42
2021/08/09 06:17:58;;;;;;;7.50;2.80;;;15.80;99.90;;;;;;5027361;28;20214;-44
2021/08/09 06:20:27;;;;;;;6.77;2.83;;;15.80;99.90;;;;;;5042699;28;20218;-49
2021/08/09 06:22:55;;;;;;;7.33;3.60;;;15.90;99.90;;;;;;5039500;28;20200;-43
2021/08/09 06:25:23;;;;;;;3.13;2.37;;;16.00;99.90;;;;;;5038378;28;20203;-45
2021/08/09 06:27:50;;;;;;;7.43;3.30;;;16.00;99.90;;;;;;5043396;28;20215;-45
2021/08/09 06:30:18;;;;;;;6.87;2.70;;;16.10;99.90;;;;;;5025639;28;20203;-44
2021/08/09 06:32:45;;;;;;;5.43;3.00;;;16.10;99.90;;;;;;5042936;28;20198;-42
2021/08/09 06:35:13;;;;;;;6.07;2.70;;;16.20;99.90;;;;;;5024426;28;20227;-41
2021/08/09 06:37:41;;;;;;;4.47;2.70;;;16.30;99.90;;;;;;5036871;28;20223;-42
2021/08/09 06:40:09;;;;;;;6.67;3.20;;;16.30;99.90;;;;;;5039166;28;20245;-45
2021/08/09 06:42:36;;;;;;;7.50;2.80;;;16.30;99.90;;;;;;5042774;28;20199;-42
2021/08/09 06:45:20;;;;;;;6.67;2.40;;;16.40;99.90;;;;;;5029512;28;20618;-41
2021/08/09 06:47:48;;;;;;;7.40;2.60;;;16.40;99.90;;;;;;5041271;28;20294;-45
2021/08/09 06:50:15;;;;;;;6.83;3.13;;;16.50;99.90;;;;;;5038170;28;20242;-41
2021/08/09 06:52:42;;;;;;;5.47;2.60;;;16.50;99.90;;;;;;5021543;28;20225;-43
2021/08/09 06:55:09;;;;;;;6.40;2.80;;;16.60;99.90;;;;;;5044672;28;20200;-42
2021/08/09 06:57:38;;;;;;;7.57;3.10;;;16.70;99.90;;;;;;5031982;28;20231;-43
2021/08/09 07:00:07;;;;;;;4.67;2.70;;;16.70;99.90;;;;;;5028402;28;20207;-42
2021/08/09 07:02:36;;;;;;;3.63;3.33;;;16.80;99.90;;;;;;5032939;28;20830;-42
2021/08/09 07:05:02;;;;;;;6.60;2.90;;;16.80;99.90;;;;;;5036718;28;20294;-42
2021/08/09 07:07:30;;;;;;;5.17;2.80;;;16.80;99.90;;;;;;5034389;28;20924;-42
2021/08/09 07:09:58;;;;;;;6.30;2.13;;;16.80;99.90;;;;;;5043947;28;20229;-47
2021/08/09 07:12:25;;;;;;;5.03;2.63;;;16.80;99.90;;;;;;5036087;28;20260;-48
2021/08/09 07:14:52;;;;;;;7.57;3.10;;;16.80;99.90;;;;;;5043316;28;20676;-46
2021/08/09 07:17:18;;;;;;;7.00;3.50;;;16.70;99.90;;;;;;5021641;28;20227;-43
2021/08/09 07:19:46;;;;;;;4.80;2.47;;;16.80;99.90;;;;;;5039044;28;20184;-42
2021/08/09 07:22:13;;;;;;;4.93;2.80;;;16.90;99.90;;;;;;5029256;28;20207;-45
2021/08/09 07:24:41;;;;;;;9.03;2.60;;;16.90;99.90;;;;;;5035755;28;20400;-44
2021/08/09 07:27:09;;;;;;;4.97;3.10;;;17.00;99.90;;;;;;5039247;28;20264;-44
2021/08/09 07:29:35;;;;;;;5.43;2.90;;;17.00;99.90;;;;;;5033987;28;20895;-45
2021/08/09 07:32:02;;;;;;;7.13;4.00;;;17.00;99.90;;;;;;5020044;28;20350;-43
2021/08/09 07:34:29;;;;;;;7.17;2.83;;;17.00;99.90;;;;;;5027853;28;20199;-46
2021/08/09 07:36:57;;;;;;;8.27;3.10;;;17.00;99.90;;;;;;5037804;28;20223;-45
2021/08/09 07:39:24;;;;;;;5.67;2.67;;;17.00;99.90;;;;;;5036962;28;20215;-44
2021/08/09 07:41:53;;;;;;;4.87;2.27;;;16.90;99.90;;;;;;5034758;28;20225;-46
2021/08/09 07:44:20;;;;;;;6.80;3.50;;;16.90;99.90;;;;;;5037981;28;20202;-46
2021/08/09 07:46:47;;;;;;;7.20;2.97;;;17.00;99.90;;;;;;5025112;28;20259;-51
2021/08/09 07:49:15;;;;;;;5.63;3.07;;;17.00;99.90;;;;;;5039640;28;20227;-42
2021/08/09 07:51:44;;;;;;;5.90;3.00;;;17.10;99.90;;;;;;5036088;28;21041;-46
2021/08/09 07:54:13;;;;;;;6.40;3.03;;;17.10;99.90;;;;;;5042734;28;20200;-45
2021/08/09 07:56:40;;;;;;;7.17;3.93;;;17.20;99.90;;;;;;5040649;28;20180;-45
2021/08/09 07:59:06;;;;;;;7.50;3.10;;;17.20;99.90;;;;;;5040768;28;20258;-45
2021/08/09 08:01:33;;;;;;;8.87;3.43;;;17.30;99.90;;;;;;5034328;28;20195;-44
2021/08/09 08:04:01;;;;;;;5.93;2.80;;;17.40;99.90;;;;;;5021390;28;20734;-42
2021/08/09 08:06:27;;;;;;;7.83;3.40;;;17.40;99.90;;;;;;5031832;28;20214;-48
2021/08/09 08:08:54;;;;;;;5.10;2.77;;;17.50;99.90;;;;;;5038849;28;20207;-47
2021/08/09 08:11:22;;;;;;;6.80;2.90;;;17.60;99.90;;;;;;5033390;28;20230;-45
2021/08/09 08:13:49;;;;;;;8.80;2.83;;;17.60;99.90;;;;;;5037411;28;20282;-48
2021/08/09 08:16:16;;;;;;;9.67;2.70;;;17.70;99.90;;;;;;5035803;28;20199;-48
2021/08/09 08:18:43;;;;;;;5.87;2.83;;;17.80;99.90;;;;;;5022807;28;20220;-45
2021/08/09 08:21:10;;;;;;;8.47;2.77;;;17.80;99.90;;;;;;5037165;28;20213;-46
2021/08/09 08:23:37;;;;;;;14.37;3.13;;;17.90;99.90;;;;;;5033260;28;20218;-46
2021/08/09 08:26:04;;;;;;;6.40;2.57;;;17.90;99.90;;;;;;5041733;28;20623;-43
2021/08/09 08:28:32;;;;;;;5.27;2.97;;;17.90;99.90;;;;;;5031122;28;20685;-46
2021/08/09 08:31:01;;;;;;;5.13;2.60;;;17.90;99.90;;;;;;5039006;28;20551;-47
2021/08/09 08:33:27;;;;;;;6.73;3.00;;;18.10;99.90;;;;;;5039775;28;20227;-43
2021/08/09 08:35:54;;;;;;;7.33;2.63;;;18.10;99.90;;;;;;5018960;28;20215;-43
2021/08/09 08:38:21;;;;;;;6.97;2.33;;;18.20;99.90;;;;;;5030848;28;20211;-43
2021/08/09 08:40:49;;;;;;;4.67;3.30;;;18.20;99.90;;;;;;5033627;28;20203;-50
2021/08/09 08:43:22;;;;;;;6.80;3.50;;;18.20;99.90;;;;;;5038063;28;20269;-49
2021/08/09 08:45:57;;;;;;;5.30;2.47;;;18.30;99.90;;;;;;5035953;28;20647;-47
2021/08/09 08:48:25;;;;;;;5.83;2.77;;;18.50;99.90;;;;;;5038378;28;20305;-50
2021/08/09 08:50:52;;;;;;;5.03;3.10;;;18.50;99.90;;;;;;5012502;28;20928;-47
2021/08/09 08:53:19;;;;;;;3.80;2.90;;;18.50;99.90;;;;;;5036787;28;20241;-48
2021/08/09 08:55:47;;;;;;;5.50;3.07;;;18.60;99.90;;;;;;5037323;28;20190;-48
2021/08/09 08:58:13;;;;;;;6.37;2.60;;;18.70;99.90;;;;;;5042539;28;20215;-50
2021/08/09 09:00:42;;;;;;;5.87;3.00;;;18.70;99.90;;;;;;5035745;28;20203;-47
2021/08/09 09:03:19;;;;;;;6.47;2.73;;;18.80;99.90;;;;;;5040999;28;20207;-49
2021/08/09 09:06:01;;;;;;;4.60;2.93;;;18.70;99.90;;;;;;5021223;28;20221;-46
2021/08/09 09:08:41;;;;;;;9.77;2.30;;;18.80;99.90;;;;;;5033816;28;20237;-49
2021/08/09 09:11:09;;;;;;;8.70;3.17;;;18.90;99.90;;;;;;5038821;28;20268;-51
2021/08/09 09:13:36;;;;;;;4.73;2.30;;;18.90;99.90;;;;;;5040660;28;20203;-49
2021/08/09 09:16:05;;;;;;;7.07;2.40;;;19.00;99.90;;;;;;5040494;28;20665;-43
2021/08/09 09:18:52;;;;;;;10.80;5.00;;;18.90;99.90;;;;;;5029367;28;20215;-47
2021/08/09 09:21:28;;;;;;;6.13;2.50;;;18.90;99.90;;;;;;5010172;28;21430;-48
2021/08/09 09:24:06;;;;;;;2.80;2.23;;;18.90;99.90;;;;;;5039767;28;20657;-46
2021/08/09 09:26:33;;;;;;;4.83;2.83;;;18.80;99.90;;;;;;5036227;28;20196;-45
2021/08/09 09:29:06;;;;;;;3.73;2.27;;;18.90;99.90;;;;;;5039548;28;20580;-51
2021/08/09 09:31:33;;;;;;;4.30;2.93;;;19.00;99.90;;;;;;5035512;28;20264;-47
2021/08/09 09:34:05;;;;;;;5.83;2.70;;;19.00;99.90;;;;;;5048181;28;20260;-51
2021/08/09 09:36:48;;;;;;;6.20;3.37;;;19.00;99.90;;;;;;5023342;28;20203;-44
2021/08/09 09:39:35;;;;;;;8.10;3.13;;;19.10;99.90;;;;;;5038312;28;20223;-49
2021/08/09 09:42:04;;;;;;;7.00;2.90;;;19.00;99.90;;;;;;5036454;28;20297;-48
2021/08/09 09:44:33;;;;;;;6.30;2.67;;;19.10;99.90;;;;;;5041659;28;20199;-45
2021/08/09 09:47:20;;;;;;;9.73;3.23;;;19.10;99.90;;;;;;5048395;28;20206;-45
2021/08/09 09:49:48;;;;;;;4.60;2.10;;;19.30;99.90;;;;;;5045069;28;20202;-47
2021/08/09 09:52:35;;;;;;;7.20;2.83;;;19.30;99.90;;;;;;5030677;28;20215;-47
2021/08/09 09:55:05;;;;;;;9.13;2.50;;;19.50;99.90;;;;;;5030899;28;20670;-50
2021/08/09 09:57:32;;;;;;;2.80;2.23;;;19.70;99.90;;;;;;5036241;28;20498;-46
2021/08/09 09:59:59;;;;;;;7.00;2.90;;;19.80;99.90;;;;;;5045401;28;20673;-47
2021/08/09 10:02:27;;;;;;;4.63;2.63;;;19.90;99.90;;;;;;5042633;28;20204;-45
2021/08/09 10:04:55;;;;;;;4.53;1.90;;;19.80;99.90;;;;;;5047311;28;20245;-48
2021/08/09 10:07:25;;;;;;;2.27;1.70;;;19.80;99.90;;;;;;5034106;28;20195;-48
2021/08/09 10:09:53;;;;;;;3.47;2.40;;;19.80;99.90;;;;;;5041810;28;20195;-46
2021/08/09 10:12:24;;;;;;;5.50;2.30;;;19.80;99.90;;;;;;5033954;28;20206;-45
2021/08/09 10:14:53;;;;;;;3.77;2.20;;;20.00;99.90;;;;;;5042525;28;20658;-48
2021/08/09 10:17:21;;;;;;;5.87;2.10;;;20.10;99.90;;;;;;5044280;28;20202;-43
2021/08/09 10:19:50;;;;;;;3.43;1.80;;;20.20;99.90;;;;;;5038381;28;20215;-45
2021/08/09 10:22:20;;;;;;;4.53;1.70;;;20.30;99.90;;;;;;5037332;28;20203;-48
2021/08/09 10:24:51;;;;;;;4.03;1.43;;;20.50;99.90;;;;;;5039470;28;20208;-47
2021/08/09 10:27:18;;;;;;;3.93;1.63;;;20.40;99.90;;;;;;5033955;28;20208;-48
2021/08/09 10:30:14;;;;;;;3.83;1.67;;;20.50;99.90;;;;;;5045344;28;20929;-47
2021/08/09 10:32:46;;;;;;;5.13;1.67;;;20.50;99.90;;;;;;5036241;28;20205;-45
2021/08/09 10:36:03;;;;;;;5.50;2.00;;;20.50;99.90;;;;;;5040842;28;20211;-45
2021/08/09 10:38:39;;;;;;;4.67;1.73;;;20.50;99.90;;;;;;5009842;28;20318;-44
2021/08/09 10:41:25;;;;;;;4.00;1.83;;;20.60;99.90;;;;;;5044295;28;20679;-45
2021/08/09 10:44:21;;;;;;;3.03;1.80;;;20.50;99.90;;;;;;5040485;28;20564;-45
2021/08/09 10:46:47;;;;;;;2.83;1.60;;;20.40;99.90;;;;;;5040338;28;20199;-47
2021/08/09 10:49:57;;;;;;;3.03;1.80;;;20.40;99.90;;;;;;5037409;28;20684;-46
2021/08/09 10:52:35;;;;;;;1.93;1.63;;;20.50;99.90;;;;;;5039282;28;20199;-47
2021/08/09 10:55:42;;;;;;;2.67;1.50;;;20.50;99.90;;;;;;5021595;28;20203;-47
2021/08/09 10:58:30;;;;;;;3.60;1.60;;;20.50;99.90;;;;;;5029795;28;20231;-48
2021/08/09 11:00:58;;;;;;;5.57;1.70;;;20.60;99.90;;;;;;5033883;28;20286;-48
2021/08/09 11:03:25;;;;;;;4.10;1.50;;;20.70;99.90;;;;;;5033972;28;20705;-45
2021/08/09 11:05:52;;;;;;;4.90;1.50;;;20.80;99.90;;;;;;5033825;28;20203;-51
2021/08/09 11:08:40;;;;;;;2.80;1.50;;;20.70;99.90;;;;;;5036651;28;20231;-42
2021/08/09 11:11:08;;;;;;;1.73;1.53;;;20.70;99.90;;;;;;5024668;28;20570;-47
2021/08/09 11:14:12;;;;;;;4.23;1.40;;;20.80;99.90;;;;;;5021642;28;20282;-44
2021/08/09 11:16:40;;;;;;;4.23;1.03;;;20.80;99.90;;;;;;5009142;28;20196;-43
2021/08/09 11:19:07;;;;;;;2.80;1.90;;;20.90;99.90;;;;;;5029590;28;20211;-45
2021/08/09 11:21:34;;;;;;;4.47;1.57;;;20.90;99.90;;;;;;5040476;28;20202;-44
2021/08/09 11:24:01;;;;;;;6.50;1.40;;;20.90;99.90;;;;;;5040330;28;20195;-45
2021/08/09 11:26:32;;;;;;;3.90;1.33;;;21.00;99.90;;;;;;5020804;28;20208;-49
2021/08/09 11:29:00;;;;;;;5.20;1.20;;;21.10;99.90;;;;;;5042025;28;20238;-44
2021/08/09 11:31:27;;;;;;;2.53;1.37;;;21.20;99.90;;;;;;5031983;28;20200;-44
2021/08/09 11:33:55;;;;;;;3.23;1.30;;;21.20;99.90;;;;;;5035439;28;20204;-49
2021/08/09 11:36:23;;;;;;;2.00;1.53;;;21.10;99.90;;;;;;5035157;28;20282;-49
2021/08/09 11:38:51;;;;;;;2.60;1.40;;;21.10;99.90;;;;;;5038603;28;20219;-46
2021/08/09 11:41:20;;;;;;;1.60;1.50;;;21.20;99.90;;;;;;5026344;28;20239;-50
2021/08/09 11:43:48;;;;;;;3.95;1.35;;;21.20;99.90;;;;;;5038374;28;20203;-47
2021/08/09 11:46:17;;;;;;;1.60;1.35;;;21.10;99.90;;;;;;5037917;28;20573;-49
2021/08/09 11:48:46;;;;;;;4.13;1.40;;;20.90;99.90;;;;;;5044719;28;20212;-51
2021/08/09 11:51:16;;;;;;;3.63;1.67;;;20.80;99.90;;;;;;5045228;28;20203;-44
2021/08/09 11:53:46;;;;;;;4.87;1.40;;;20.90;99.90;;;;;;5040223;28;20211;-45
2021/08/09 11:56:14;;;;;;;3.83;1.60;;;20.90;99.90;;;;;;5027182;28;20208;-42
2021/08/09 11:58:42;;;;;;;4.57;1.20;;;21.00;99.90;;;;;;5027225;28;20224;-47
2021/08/09 12:01:09;;;;;;;1.60;1.17;;;21.10;99.90;;;;;;5045383;28;20203;-43
2021/08/09 12:03:36;;;;;;;2.95;1.27;;;21.20;99.90;;;;;;5037479;28;20202;-41
2021/08/09 12:06:25;;;;;;;5.72;2.65;;;21.30;99.90;;;;;;5043984;28;20199;-41
2021/08/09 12:08:56;;;;;;;3.28;1.27;;;21.40;99.90;;;;;;5039496;28;20263;-43
2021/08/09 12:11:27;;;;;;;5.70;1.80;;;21.40;99.90;;;;;;5014322;28;20210;-46
2021/08/09 12:14:08;;;;;;;1.93;1.57;;;21.10;99.90;;;;;;5029082;28;20218;-46
2021/08/09 12:16:47;;;;;;;3.93;1.77;;;21.00;99.90;;;;;;5032408;28;20191;-46
2021/08/09 12:19:14;;;;;;;1.92;1.35;;;20.90;99.90;;;;;;5028875;28;20714;-47
2021/08/09 12:21:42;;;;;;;5.17;1.33;;;20.60;99.90;;;;;;5041745;28;20199;-46
2021/08/09 12:24:17;;;;;;;2.87;1.40;;;20.50;99.90;;;;;;5043294;28;20199;-44
2021/08/09 12:26:44;;;;;;;4.50;1.73;;;20.50;99.90;;;;;;5028396;28;20958;-49
2021/08/09 12:29:17;;;;;;;2.67;1.47;;;20.40;99.90;;;;;;5037888;28;20238;-47
2021/08/09 12:31:47;;;;;;;2.57;1.10;;;20.40;99.90;;;;;;5039711;28;20190;-46
2021/08/09 12:34:16;;;;;;;4.40;1.97;;;20.40;99.90;;;;;;5025401;28;20207;-43
2021/08/09 12:36:45;;;;;;;3.67;2.13;;;20.50;99.90;;;;;;5030402;28;20191;-46
2021/08/09 12:39:29;;;;;;;2.40;1.40;;;20.40;99.90;;;;;;5037238;28;20257;-49
2021/08/09 12:41:56;;;;;;;1.47;1.10;;;20.40;99.90;;;;;;5019967;28;20920;-48
2021/08/09 12:44:22;;;;;;;3.43;1.17;;;20.40;99.90;;;;;;5033334;28;20213;-44
2021/08/09 12:46:49;;;;;;;4.40;2.17;;;20.50;99.90;;;;;;5028542;28;20200;-46
2021/08/09 12:49:16;;;;;;;1.97;1.43;;;20.60;99.90;;;;;;5038605;28;20700;-44
2021/08/09 12:51:44;;;;;;;2.60;1.00;;;20.70;99.90;;;;;;5037688;28;20545;-49
2021/08/09 12:54:10;;;;;;;3.80;1.40;;;20.70;99.90;;;;;;5037708;28;20249;-49
2021/08/09 12:56:37;;;;;;;4.30;1.60;;;20.80;99.90;;;;;;5037313;28;20230;-43
2021/08/09 12:59:05;;;;;;;4.17;1.40;;;20.90;99.90;;;;;;5041002;28;20970;-48